sensor_id;sensor_type;location;lat;lon;timestamp;P1;durP1;ratioP1;P2;durP2;ratioP2
68942;SDS011;60852;52.190;4.422;2023-03-04T00:01:39;9.88;;;5.87;;
68942;SDS011;60852;52.190;4.422;2023-03-04T00:04:04;9.48;;;5.58;;
68942;SDS011;60852;52.190;4.422;2023-03-04T00:06:30;10.67;;;6.32;;
68942;SDS011;60852;52.190;4.422;2023-03-04T00:08:55;9.09;;;5.45;;
68942;SDS011;60852;52.190;4.422;2023-03-04T00:11:20;9.56;;;5.69;;
68942;SDS011;60852;52.190;4.422;2023-03-04T00:13:46;8.96;;;5.42;;
68942;SDS011;60852;52.190;4.422;2023-03-04T00:16:11;9.20;;;5.55;;
68942;SDS011;60852;52.190;4.422;2023-03-04T00:18:37;10.20;;;6.13;;
68942;SDS011;60852;52.190;4.422;2023-03-04T00:21:03;9.48;;;5.67;;
68942;SDS011;60852;52.190;4.422;2023-03-04T00:23:28;9.61;;;5.79;;
68942;SDS011;60852;52.190;4.422;2023-03-04T00:25:54;8.63;;;5.21;;
68942;SDS011;60852;52.190;4.422;2023-03-04T00:28:19;9.02;;;5.43;;
68942;SDS011;60852;52.190;4.422;2023-03-04T00:30:44;9.41;;;5.70;;
68942;SDS011;60852;52.190;4.422;2023-03-04T00:33:10;8.95;;;5.36;;
68942;SDS011;60852;52.190;4.422;2023-03-04T00:35:35;8.33;;;4.94;;
68942;SDS011;60852;52.190;4.422;2023-03-04T00:38:01;10.17;;;5.96;;
68942;SDS011;60852;52.190;4.422;2023-03-04T00:40:26;8.89;;;5.19;;
68942;SDS011;60852;52.190;4.422;2023-03-04T00:42:52;9.08;;;5.39;;
68942;SDS011;60852;52.190;4.422;2023-03-04T00:45:17;8.32;;;4.93;;
68942;SDS011;60852;52.190;4.422;2023-03-04T00:47:43;8.30;;;4.97;;
68942;SDS011;60852;52.190;4.422;2023-03-04T00:50:09;9.61;;;5.71;;
68942;SDS011;60852;52.190;4.422;2023-03-04T00:52:35;8.42;;;5.07;;
68942;SDS011;60852;52.190;4.422;2023-03-04T00:55:00;8.89;;;5.37;;
68942;SDS011;60852;52.190;4.422;2023-03-04T00:57:26;9.12;;;5.46;;
68942;SDS011;60852;52.190;4.422;2023-03-04T00:59:51;9.32;;;5.57;;
68942;SDS011;60852;52.190;4.422;2023-03-04T01:02:17;9.53;;;5.72;;
68942;SDS011;60852;52.190;4.422;2023-03-04T01:04:42;8.12;;;4.98;;
68942;SDS011;60852;52.190;4.422;2023-03-04T01:07:08;8.48;;;5.09;;
68942;SDS011;60852;52.190;4.422;2023-03-04T01:09:34;9.99;;;5.92;;
68942;SDS011;60852;52.190;4.422;2023-03-04T01:11:59;9.66;;;5.69;;
68942;SDS011;60852;52.190;4.422;2023-03-04T01:14:25;10.78;;;6.31;;
68942;SDS011;60852;52.190;4.422;2023-03-04T01:16:50;9.67;;;5.68;;
68942;SDS011;60852;52.190;4.422;2023-03-04T01:19:17;8.12;;;4.84;;
68942;SDS011;60852;52.190;4.422;2023-03-04T01:21:43;7.86;;;4.74;;
68942;SDS011;60852;52.190;4.422;2023-03-04T01:24:08;8.78;;;5.29;;
68942;SDS011;60852;52.190;4.422;2023-03-04T01:26:34;8.55;;;5.12;;
68942;SDS011;60852;52.190;4.422;2023-03-04T01:29:00;9.23;;;5.49;;
68942;SDS011;60852;52.190;4.422;2023-03-04T01:31:25;8.79;;;5.20;;
68942;SDS011;60852;52.190;4.422;2023-03-04T01:33:51;8.64;;;5.16;;
68942;SDS011;60852;52.190;4.422;2023-03-04T01:36:16;7.56;;;4.51;;
68942;SDS011;60852;52.190;4.422;2023-03-04T01:38:43;8.12;;;4.78;;
68942;SDS011;60852;52.190;4.422;2023-03-04T01:41:08;8.68;;;5.15;;
68942;SDS011;60852;52.190;4.422;2023-03-04T01:43:36;8.96;;;5.32;;
68942;SDS011;60852;52.190;4.422;2023-03-04T01:46:02;9.57;;;5.69;;
68942;SDS011;60852;52.190;4.422;2023-03-04T01:48:36;9.08;;;5.44;;
68942;SDS011;60852;52.190;4.422;2023-03-04T01:51:03;8.74;;;5.31;;
68942;SDS011;60852;52.190;4.422;2023-03-04T01:53:30;8.63;;;5.19;;
68942;SDS011;60852;52.190;4.422;2023-03-04T01:55:57;8.34;;;5.00;;
68942;SDS011;60852;52.190;4.422;2023-03-04T01:58:30;9.42;;;5.64;;
68942;SDS011;60852;52.190;4.422;2023-03-04T02:00:57;8.89;;;5.33;;
68942;SDS011;60852;52.190;4.422;2023-03-04T02:03:23;8.78;;;5.25;;
68942;SDS011;60852;52.190;4.422;2023-03-04T02:05:49;9.13;;;5.43;;
68942;SDS011;60852;52.190;4.422;2023-03-04T02:08:18;8.97;;;5.33;;
68942;SDS011;60852;52.190;4.422;2023-03-04T02:10:46;9.02;;;5.36;;
68942;SDS011;60852;52.190;4.422;2023-03-04T02:13:13;8.50;;;5.08;;
68942;SDS011;60852;52.190;4.422;2023-03-04T02:15:41;8.47;;;5.11;;
68942;SDS011;60852;52.190;4.422;2023-03-04T02:18:19;8.43;;;5.05;;
68942;SDS011;60852;52.190;4.422;2023-03-04T02:23:46;8.39;;;4.97;;
68942;SDS011;60852;52.190;4.422;2023-03-04T02:26:31;9.27;;;5.44;;
68942;SDS011;60852;52.190;4.422;2023-03-04T02:28:59;9.58;;;5.58;;
68942;SDS011;60852;52.190;4.422;2023-03-04T02:31:32;9.21;;;5.45;;
68942;SDS011;60852;52.190;4.422;2023-03-04T02:34:01;8.52;;;5.08;;
68942;SDS011;60852;52.190;4.422;2023-03-04T02:36:57;8.02;;;4.78;;
68942;SDS011;60852;52.190;4.422;2023-03-04T02:39:28;7.44;;;4.47;;
68942;SDS011;60852;52.190;4.422;2023-03-04T02:41:57;7.97;;;4.75;;
68942;SDS011;60852;52.190;4.422;2023-03-04T02:44:28;8.21;;;4.92;;
68942;SDS011;60852;52.190;4.422;2023-03-04T02:46:55;8.80;;;5.22;;
68942;SDS011;60852;52.190;4.422;2023-03-04T02:49:23;8.08;;;4.75;;
68942;SDS011;60852;52.190;4.422;2023-03-04T02:51:52;8.68;;;5.15;;
68942;SDS011;60852;52.190;4.422;2023-03-04T02:54:33;8.10;;;4.82;;
68942;SDS011;60852;52.190;4.422;2023-03-04T02:57:00;7.94;;;4.72;;
68942;SDS011;60852;52.190;4.422;2023-03-04T02:59:28;7.93;;;4.74;;
68942;SDS011;60852;52.190;4.422;2023-03-04T03:01:54;7.96;;;4.74;;
68942;SDS011;60852;52.190;4.422;2023-03-04T03:04:20;7.75;;;4.60;;
68942;SDS011;60852;52.190;4.422;2023-03-04T03:06:46;8.08;;;4.81;;
68942;SDS011;60852;52.190;4.422;2023-03-04T03:09:11;8.20;;;4.83;;
68942;SDS011;60852;52.190;4.422;2023-03-04T03:11:37;6.99;;;4.14;;
68942;SDS011;60852;52.190;4.422;2023-03-04T03:14:03;7.58;;;4.53;;
68942;SDS011;60852;52.190;4.422;2023-03-04T03:16:29;8.36;;;4.99;;
68942;SDS011;60852;52.190;4.422;2023-03-04T03:18:55;8.48;;;5.04;;
68942;SDS011;60852;52.190;4.422;2023-03-04T03:21:20;7.32;;;4.33;;
68942;SDS011;60852;52.190;4.422;2023-03-04T03:23:46;6.87;;;4.08;;
68942;SDS011;60852;52.190;4.422;2023-03-04T03:26:11;7.48;;;4.39;;
68942;SDS011;60852;52.190;4.422;2023-03-04T03:28:37;7.01;;;4.10;;
68942;SDS011;60852;52.190;4.422;2023-03-04T03:31:02;6.14;;;3.61;;
68942;SDS011;60852;52.190;4.422;2023-03-04T03:33:28;6.68;;;3.97;;
68942;SDS011;60852;52.190;4.422;2023-03-04T03:35:54;6.58;;;3.90;;
68942;SDS011;60852;52.190;4.422;2023-03-04T03:38:19;6.23;;;3.73;;
68942;SDS011;60852;52.190;4.422;2023-03-04T03:40:45;6.45;;;3.82;;
68942;SDS011;60852;52.190;4.422;2023-03-04T03:43:10;8.33;;;4.99;;
68942;SDS011;60852;52.190;4.422;2023-03-04T03:45:36;7.10;;;4.30;;
68942;SDS011;60852;52.190;4.422;2023-03-04T03:48:02;6.40;;;3.93;;
68942;SDS011;60852;52.190;4.422;2023-03-04T03:50:27;6.42;;;3.93;;
68942;SDS011;60852;52.190;4.422;2023-03-04T03:52:53;6.51;;;3.94;;
68942;SDS011;60852;52.190;4.422;2023-03-04T03:55:19;7.35;;;4.46;;
68942;SDS011;60852;52.190;4.422;2023-03-04T03:57:45;7.85;;;4.71;;
68942;SDS011;60852;52.190;4.422;2023-03-04T04:00:11;7.34;;;4.41;;
68942;SDS011;60852;52.190;4.422;2023-03-04T04:02:37;6.00;;;3.66;;
68942;SDS011;60852;52.190;4.422;2023-03-04T04:05:03;6.17;;;3.76;;
68942;SDS011;60852;52.190;4.422;2023-03-04T04:07:29;6.94;;;4.22;;
68942;SDS011;60852;52.190;4.422;2023-03-04T04:09:55;6.70;;;4.09;;
68942;SDS011;60852;52.190;4.422;2023-03-04T04:12:20;6.74;;;4.12;;
68942;SDS011;60852;52.190;4.422;2023-03-04T04:14:46;6.57;;;4.01;;
68942;SDS011;60852;52.190;4.422;2023-03-04T04:17:11;5.84;;;3.55;;
68942;SDS011;60852;52.190;4.422;2023-03-04T04:19:38;6.04;;;3.68;;
68942;SDS011;60852;52.190;4.422;2023-03-04T04:22:05;6.02;;;3.67;;
68942;SDS011;60852;52.190;4.422;2023-03-04T04:24:32;7.75;;;4.68;;
68942;SDS011;60852;52.190;4.422;2023-03-04T04:26:58;8.28;;;4.95;;
68942;SDS011;60852;52.190;4.422;2023-03-04T04:29:24;8.00;;;4.86;;
68942;SDS011;60852;52.190;4.422;2023-03-04T04:31:49;6.98;;;4.31;;
68942;SDS011;60852;52.190;4.422;2023-03-04T04:34:15;6.33;;;3.91;;
68942;SDS011;60852;52.190;4.422;2023-03-04T04:36:41;6.40;;;3.97;;
68942;SDS011;60852;52.190;4.422;2023-03-04T04:39:06;5.59;;;3.56;;
68942;SDS011;60852;52.190;4.422;2023-03-04T04:41:36;4.80;;;3.08;;
68942;SDS011;60852;52.190;4.422;2023-03-04T04:44:04;5.29;;;3.35;;
68942;SDS011;60852;52.190;4.422;2023-03-04T04:46:29;5.86;;;3.64;;
68942;SDS011;60852;52.190;4.422;2023-03-04T04:48:55;5.45;;;3.42;;
68942;SDS011;60852;52.190;4.422;2023-03-04T04:51:20;5.64;;;3.52;;
68942;SDS011;60852;52.190;4.422;2023-03-04T04:53:46;6.17;;;3.85;;
68942;SDS011;60852;52.190;4.422;2023-03-04T04:56:17;6.51;;;4.06;;
68942;SDS011;60852;52.190;4.422;2023-03-04T04:58:45;6.73;;;4.15;;
68942;SDS011;60852;52.190;4.422;2023-03-04T05:01:12;6.63;;;4.08;;
68942;SDS011;60852;52.190;4.422;2023-03-04T05:03:38;6.87;;;4.14;;
68942;SDS011;60852;52.190;4.422;2023-03-04T05:06:06;6.77;;;4.12;;
68942;SDS011;60852;52.190;4.422;2023-03-04T05:08:33;6.95;;;4.24;;
68942;SDS011;60852;52.190;4.422;2023-03-04T05:10:59;6.46;;;3.94;;
68942;SDS011;60852;52.190;4.422;2023-03-04T05:13:26;6.91;;;4.24;;
68942;SDS011;60852;52.190;4.422;2023-03-04T05:15:52;6.53;;;4.01;;
68942;SDS011;60852;52.190;4.422;2023-03-04T05:18:21;6.48;;;3.98;;
68942;SDS011;60852;52.190;4.422;2023-03-04T05:20:51;5.95;;;3.65;;
68942;SDS011;60852;52.190;4.422;2023-03-04T05:23:18;6.31;;;3.89;;
68942;SDS011;60852;52.190;4.422;2023-03-04T05:25:45;6.27;;;3.87;;
68942;SDS011;60852;52.190;4.422;2023-03-04T05:28:11;6.64;;;4.07;;
68942;SDS011;60852;52.190;4.422;2023-03-04T05:30:38;6.27;;;3.82;;
68942;SDS011;60852;52.190;4.422;2023-03-04T05:33:04;6.20;;;3.77;;
68942;SDS011;60852;52.190;4.422;2023-03-04T05:35:33;5.01;;;3.04;;
68942;SDS011;60852;52.190;4.422;2023-03-04T05:38:03;5.96;;;3.63;;
68942;SDS011;60852;52.190;4.422;2023-03-04T05:40:31;6.09;;;3.74;;
68942;SDS011;60852;52.190;4.422;2023-03-04T05:42:57;5.50;;;3.36;;
68942;SDS011;60852;52.190;4.422;2023-03-04T05:45:23;6.30;;;3.82;;
68942;SDS011;60852;52.190;4.422;2023-03-04T05:47:49;6.35;;;3.91;;
68942;SDS011;60852;52.190;4.422;2023-03-04T05:50:15;5.52;;;3.37;;
68942;SDS011;60852;52.190;4.422;2023-03-04T05:52:40;5.54;;;3.38;;
68942;SDS011;60852;52.190;4.422;2023-03-04T05:55:06;5.52;;;3.40;;
68942;SDS011;60852;52.190;4.422;2023-03-04T05:57:31;5.72;;;3.52;;
68942;SDS011;60852;52.190;4.422;2023-03-04T05:59:57;6.36;;;3.98;;
68942;SDS011;60852;52.190;4.422;2023-03-04T06:02:22;6.02;;;3.79;;
68942;SDS011;60852;52.190;4.422;2023-03-04T06:04:48;6.03;;;3.79;;
68942;SDS011;60852;52.190;4.422;2023-03-04T06:07:13;5.69;;;3.58;;
68942;SDS011;60852;52.190;4.422;2023-03-04T06:09:38;5.39;;;3.41;;
68942;SDS011;60852;52.190;4.422;2023-03-04T06:12:04;5.24;;;3.38;;
68942;SDS011;60852;52.190;4.422;2023-03-04T06:14:30;4.79;;;3.06;;
68942;SDS011;60852;52.190;4.422;2023-03-04T06:16:55;4.67;;;3.02;;
68942;SDS011;60852;52.190;4.422;2023-03-04T06:19:20;4.45;;;2.84;;
68942;SDS011;60852;52.190;4.422;2023-03-04T06:21:46;5.48;;;3.50;;
68942;SDS011;60852;52.190;4.422;2023-03-04T06:24:11;5.61;;;3.56;;
68942;SDS011;60852;52.190;4.422;2023-03-04T06:26:37;4.11;;;2.58;;
68942;SDS011;60852;52.190;4.422;2023-03-04T06:29:03;4.48;;;2.81;;
68942;SDS011;60852;52.190;4.422;2023-03-04T06:31:30;4.30;;;2.69;;
68942;SDS011;60852;52.190;4.422;2023-03-04T06:33:55;4.50;;;2.80;;
68942;SDS011;60852;52.190;4.422;2023-03-04T06:36:20;4.68;;;2.92;;
68942;SDS011;60852;52.190;4.422;2023-03-04T06:38:46;4.31;;;2.70;;
68942;SDS011;60852;52.190;4.422;2023-03-04T06:41:11;3.61;;;2.26;;
68942;SDS011;60852;52.190;4.422;2023-03-04T06:43:38;4.29;;;2.71;;
68942;SDS011;60852;52.190;4.422;2023-03-04T06:46:05;4.44;;;2.80;;
68942;SDS011;60852;52.190;4.422;2023-03-04T06:48:31;4.25;;;2.66;;
68942;SDS011;60852;52.190;4.422;2023-03-04T06:50:57;4.04;;;2.53;;
68942;SDS011;60852;52.190;4.422;2023-03-04T06:53:22;4.33;;;2.72;;
68942;SDS011;60852;52.190;4.422;2023-03-04T06:55:48;3.21;;;2.08;;
68942;SDS011;60852;52.190;4.422;2023-03-04T06:58:14;3.94;;;2.57;;
68942;SDS011;60852;52.190;4.422;2023-03-04T07:00:42;3.48;;;2.27;;
68942;SDS011;60852;52.190;4.422;2023-03-04T07:03:08;3.34;;;2.18;;
68942;SDS011;60852;52.190;4.422;2023-03-04T07:05:35;4.08;;;2.63;;
68942;SDS011;60852;52.190;4.422;2023-03-04T07:08:00;3.41;;;2.19;;
68942;SDS011;60852;52.190;4.422;2023-03-04T07:10:26;3.76;;;2.42;;
68942;SDS011;60852;52.190;4.422;2023-03-04T07:12:51;4.08;;;2.63;;
68942;SDS011;60852;52.190;4.422;2023-03-04T07:15:17;4.29;;;2.77;;
68942;SDS011;60852;52.190;4.422;2023-03-04T07:17:42;3.37;;;2.19;;
68942;SDS011;60852;52.190;4.422;2023-03-04T07:20:08;4.34;;;2.76;;
68942;SDS011;60852;52.190;4.422;2023-03-04T07:22:34;3.31;;;2.11;;
68942;SDS011;60852;52.190;4.422;2023-03-04T07:24:59;3.05;;;1.95;;
68942;SDS011;60852;52.190;4.422;2023-03-04T07:27:24;2.56;;;1.64;;
68942;SDS011;60852;52.190;4.422;2023-03-04T07:29:50;2.51;;;1.61;;
68942;SDS011;60852;52.190;4.422;2023-03-04T07:32:15;2.51;;;1.64;;
68942;SDS011;60852;52.190;4.422;2023-03-04T07:34:41;2.51;;;1.66;;
68942;SDS011;60852;52.190;4.422;2023-03-04T07:37:06;2.56;;;1.69;;
68942;SDS011;60852;52.190;4.422;2023-03-04T07:39:32;2.96;;;1.92;;
68942;SDS011;60852;52.190;4.422;2023-03-04T07:41:57;2.94;;;1.89;;
68942;SDS011;60852;52.190;4.422;2023-03-04T07:44:22;3.16;;;2.03;;
68942;SDS011;60852;52.190;4.422;2023-03-04T07:46:48;3.35;;;2.14;;
68942;SDS011;60852;52.190;4.422;2023-03-04T07:49:13;3.29;;;2.07;;
68942;SDS011;60852;52.190;4.422;2023-03-04T07:51:39;3.41;;;2.16;;
68942;SDS011;60852;52.190;4.422;2023-03-04T07:54:05;3.37;;;2.14;;
68942;SDS011;60852;52.190;4.422;2023-03-04T07:56:31;3.53;;;2.25;;
68942;SDS011;60852;52.190;4.422;2023-03-04T07:58:58;3.24;;;2.13;;
68942;SDS011;60852;52.190;4.422;2023-03-04T08:01:34;2.68;;;1.80;;
68942;SDS011;60852;52.190;4.422;2023-03-04T08:04:02;2.34;;;1.57;;
68942;SDS011;60852;52.190;4.422;2023-03-04T08:06:30;2.16;;;1.44;;
68942;SDS011;60852;52.190;4.422;2023-03-04T08:08:57;2.19;;;1.44;;
68942;SDS011;60852;52.190;4.422;2023-03-04T08:11:25;2.43;;;1.61;;
68942;SDS011;60852;52.190;4.422;2023-03-04T08:13:51;2.27;;;1.51;;
68942;SDS011;60852;52.190;4.422;2023-03-04T08:16:20;2.29;;;1.51;;
68942;SDS011;60852;52.190;4.422;2023-03-04T08:18:48;2.54;;;1.68;;
68942;SDS011;60852;52.190;4.422;2023-03-04T08:21:16;2.97;;;2.00;;
68942;SDS011;60852;52.190;4.422;2023-03-04T08:23:44;2.79;;;1.91;;
68942;SDS011;60852;52.190;4.422;2023-03-04T08:26:11;2.07;;;1.42;;
68942;SDS011;60852;52.190;4.422;2023-03-04T08:28:45;2.25;;;1.55;;
68942;SDS011;60852;52.190;4.422;2023-03-04T08:31:11;2.21;;;1.52;;
68942;SDS011;60852;52.190;4.422;2023-03-04T08:33:38;2.30;;;1.60;;
68942;SDS011;60852;52.190;4.422;2023-03-04T08:36:04;1.67;;;1.18;;
68942;SDS011;60852;52.190;4.422;2023-03-04T08:38:29;2.30;;;1.61;;
68942;SDS011;60852;52.190;4.422;2023-03-04T08:40:56;2.25;;;1.55;;
68942;SDS011;60852;52.190;4.422;2023-03-04T08:43:22;2.67;;;1.83;;
68942;SDS011;60852;52.190;4.422;2023-03-04T08:45:50;2.65;;;1.83;;
68942;SDS011;60852;52.190;4.422;2023-03-04T08:48:17;2.71;;;1.92;;
68942;SDS011;60852;52.190;4.422;2023-03-04T08:50:43;2.30;;;1.59;;
68942;SDS011;60852;52.190;4.422;2023-03-04T08:53:09;3.43;;;2.32;;
68942;SDS011;60852;52.190;4.422;2023-03-04T08:55:39;3.64;;;2.51;;
68942;SDS011;60852;52.190;4.422;2023-03-04T08:58:06;4.45;;;3.18;;
68942;SDS011;60852;52.190;4.422;2023-03-04T09:00:33;2.86;;;2.05;;
68942;SDS011;60852;52.190;4.422;2023-03-04T09:03:00;2.82;;;2.02;;
68942;SDS011;60852;52.190;4.422;2023-03-04T09:05:27;3.37;;;2.40;;
68942;SDS011;60852;52.190;4.422;2023-03-04T09:07:53;3.18;;;2.29;;
68942;SDS011;60852;52.190;4.422;2023-03-04T09:10:18;2.73;;;1.93;;
68942;SDS011;60852;52.190;4.422;2023-03-04T09:12:44;3.11;;;2.21;;
68942;SDS011;60852;52.190;4.422;2023-03-04T09:15:10;2.26;;;1.58;;
68942;SDS011;60852;52.190;4.422;2023-03-04T09:17:37;2.45;;;1.69;;
68942;SDS011;60852;52.190;4.422;2023-03-04T09:20:03;2.48;;;1.69;;
68942;SDS011;60852;52.190;4.422;2023-03-04T09:22:31;2.58;;;1.72;;
68942;SDS011;60852;52.190;4.422;2023-03-04T09:24:56;3.77;;;2.49;;
68942;SDS011;60852;52.190;4.422;2023-03-04T09:27:22;3.93;;;2.59;;
68942;SDS011;60852;52.190;4.422;2023-03-04T09:29:47;3.73;;;2.50;;
68942;SDS011;60852;52.190;4.422;2023-03-04T09:32:13;3.93;;;2.63;;
68942;SDS011;60852;52.190;4.422;2023-03-04T09:34:39;3.97;;;2.66;;
68942;SDS011;60852;52.190;4.422;2023-03-04T09:37:04;3.54;;;2.38;;
68942;SDS011;60852;52.190;4.422;2023-03-04T09:39:30;2.60;;;1.75;;
68942;SDS011;60852;52.190;4.422;2023-03-04T09:41:56;2.54;;;1.70;;
68942;SDS011;60852;52.190;4.422;2023-03-04T09:46:59;2.63;;;1.76;;
68942;SDS011;60852;52.190;4.422;2023-03-04T09:49:29;2.68;;;1.77;;
68942;SDS011;60852;52.190;4.422;2023-03-04T09:51:59;2.87;;;1.89;;
68942;SDS011;60852;52.190;4.422;2023-03-04T09:57:18;2.88;;;2.02;;
68942;SDS011;60852;52.190;4.422;2023-03-04T10:02:26;2.97;;;2.10;;
68942;SDS011;60852;52.190;4.422;2023-03-04T10:05:06;2.94;;;2.06;;
68942;SDS011;60852;52.190;4.422;2023-03-04T10:07:37;3.38;;;2.35;;
68942;SDS011;60852;52.190;4.422;2023-03-04T10:10:28;3.49;;;2.35;;
68942;SDS011;60852;52.190;4.422;2023-03-04T10:12:59;3.65;;;2.42;;
68942;SDS011;60852;52.190;4.422;2023-03-04T10:18:13;3.79;;;2.56;;
68942;SDS011;60852;52.190;4.422;2023-03-04T10:23:28;4.11;;;2.68;;
68942;SDS011;60852;52.190;4.422;2023-03-04T10:25:58;4.00;;;2.59;;
68942;SDS011;60852;52.190;4.422;2023-03-04T10:28:33;4.49;;;2.92;;
68942;SDS011;60852;52.190;4.422;2023-03-04T10:31:04;4.02;;;2.57;;
68942;SDS011;60852;52.190;4.422;2023-03-04T10:33:54;5.11;;;3.19;;
68942;SDS011;60852;52.190;4.422;2023-03-04T10:36:31;5.11;;;3.17;;
68942;SDS011;60852;52.190;4.422;2023-03-04T10:39:18;5.47;;;3.36;;
68942;SDS011;60852;52.190;4.422;2023-03-04T10:41:56;5.83;;;3.57;;
68942;SDS011;60852;52.190;4.422;2023-03-04T10:44:27;5.35;;;3.36;;
68942;SDS011;60852;52.190;4.422;2023-03-04T10:46:54;4.10;;;2.58;;
68942;SDS011;60852;52.190;4.422;2023-03-04T10:49:21;5.42;;;3.49;;
68942;SDS011;60852;52.190;4.422;2023-03-04T10:54:31;3.79;;;2.48;;
68942;SDS011;60852;52.190;4.422;2023-03-04T10:57:13;3.85;;;2.54;;
68942;SDS011;60852;52.190;4.422;2023-03-04T10:59:48;3.17;;;2.12;;
68942;SDS011;60852;52.190;4.422;2023-03-04T11:04:50;4.25;;;2.72;;
68942;SDS011;60852;52.190;4.422;2023-03-04T11:07:31;4.03;;;2.58;;
68942;SDS011;60852;52.190;4.422;2023-03-04T11:10:08;4.62;;;2.96;;
68942;SDS011;60852;52.190;4.422;2023-03-04T11:15:24;7.03;;;4.83;;
68942;SDS011;60852;52.190;4.422;2023-03-04T11:17:53;5.58;;;4.15;;
68942;SDS011;60852;52.190;4.422;2023-03-04T11:20:33;5.01;;;3.65;;
68942;SDS011;60852;52.190;4.422;2023-03-04T11:23:03;4.18;;;2.87;;
68942;SDS011;60852;52.190;4.422;2023-03-04T11:25:35;4.33;;;2.89;;
68942;SDS011;60852;52.190;4.422;2023-03-04T11:28:13;5.24;;;3.51;;
68942;SDS011;60852;52.190;4.422;2023-03-04T11:33:33;2.81;;;1.81;;
68942;SDS011;60852;52.190;4.422;2023-03-04T11:36:22;2.75;;;1.79;;
68942;SDS011;60852;52.190;4.422;2023-03-04T11:38:55;2.74;;;1.77;;
68942;SDS011;60852;52.190;4.422;2023-03-04T11:43:54;3.05;;;2.01;;
68942;SDS011;60852;52.190;4.422;2023-03-04T11:46:27;2.84;;;1.91;;
68942;SDS011;60852;52.190;4.422;2023-03-04T11:51:53;2.82;;;1.91;;
68942;SDS011;60852;52.190;4.422;2023-03-04T11:59:59;3.91;;;2.65;;
68942;SDS011;60852;52.190;4.422;2023-03-04T12:05:34;3.68;;;2.46;;
68942;SDS011;60852;52.190;4.422;2023-03-04T12:08:16;3.55;;;2.35;;
68942;SDS011;60852;52.190;4.422;2023-03-04T12:11:08;4.68;;;3.00;;
68942;SDS011;60852;52.190;4.422;2023-03-04T12:14:01;4.86;;;3.06;;
68942;SDS011;60852;52.190;4.422;2023-03-04T12:19:20;6.08;;;3.81;;
68942;SDS011;60852;52.190;4.422;2023-03-04T12:22:11;5.42;;;3.41;;
68942;SDS011;60852;52.190;4.422;2023-03-04T12:30:50;5.21;;;3.29;;
68942;SDS011;60852;52.190;4.422;2023-03-04T12:36:37;6.73;;;4.19;;
68942;SDS011;60852;52.190;4.422;2023-03-04T12:45:19;6.79;;;4.24;;
68942;SDS011;60852;52.190;4.422;2023-03-04T12:48:11;6.85;;;4.26;;
68942;SDS011;60852;52.190;4.422;2023-03-04T12:50:52;7.00;;;4.36;;
68942;SDS011;60852;52.190;4.422;2023-03-04T12:53:34;6.60;;;4.15;;
68942;SDS011;60852;52.190;4.422;2023-03-04T12:58:50;9.09;;;5.58;;
68942;SDS011;60852;52.190;4.422;2023-03-04T13:07:10;7.36;;;4.55;;
68942;SDS011;60852;52.190;4.422;2023-03-04T13:09:52;7.93;;;4.95;;
68942;SDS011;60852;52.190;4.422;2023-03-04T13:12:25;8.68;;;5.33;;
68942;SDS011;60852;52.190;4.422;2023-03-04T13:17:38;7.21;;;4.51;;
68942;SDS011;60852;52.190;4.422;2023-03-04T13:25:32;7.75;;;4.90;;
68942;SDS011;60852;52.190;4.422;2023-03-04T13:38:32;7.89;;;4.80;;
68942;SDS011;60852;52.190;4.422;2023-03-04T13:43:26;9.19;;;5.90;;
68942;SDS011;60852;52.190;4.422;2023-03-04T13:51:22;7.28;;;4.54;;
68942;SDS011;60852;52.190;4.422;2023-03-04T13:53:52;7.90;;;5.02;;
68942;SDS011;60852;52.190;4.422;2023-03-04T13:58:49;7.62;;;4.81;;
68942;SDS011;60852;52.190;4.422;2023-03-04T14:01:29;7.52;;;4.75;;
68942;SDS011;60852;52.190;4.422;2023-03-04T14:03:58;7.28;;;4.60;;
68942;SDS011;60852;52.190;4.422;2023-03-04T14:06:25;8.03;;;5.05;;
68942;SDS011;60852;52.190;4.422;2023-03-04T14:08:53;7.80;;;4.96;;
68942;SDS011;60852;52.190;4.422;2023-03-04T14:11:25;8.07;;;5.01;;
68942;SDS011;60852;52.190;4.422;2023-03-04T14:14:06;7.30;;;4.51;;
68942;SDS011;60852;52.190;4.422;2023-03-04T14:16:38;7.81;;;4.80;;
68942;SDS011;60852;52.190;4.422;2023-03-04T14:19:24;7.35;;;4.45;;
68942;SDS011;60852;52.190;4.422;2023-03-04T14:21:51;9.04;;;5.51;;
68942;SDS011;60852;52.190;4.422;2023-03-04T14:24:17;9.24;;;5.61;;
68942;SDS011;60852;52.190;4.422;2023-03-04T14:26:44;8.02;;;4.91;;
68942;SDS011;60852;52.190;4.422;2023-03-04T14:31:51;8.81;;;5.33;;
68942;SDS011;60852;52.190;4.422;2023-03-04T14:34:22;9.48;;;5.73;;
68942;SDS011;60852;52.190;4.422;2023-03-04T14:36:53;8.53;;;5.15;;
68942;SDS011;60852;52.190;4.422;2023-03-04T14:39:20;9.52;;;5.73;;
68942;SDS011;60852;52.190;4.422;2023-03-04T14:41:50;8.57;;;5.15;;
68942;SDS011;60852;52.190;4.422;2023-03-04T14:44:25;10.42;;;6.20;;
68942;SDS011;60852;52.190;4.422;2023-03-04T14:47:19;10.73;;;6.36;;
68942;SDS011;60852;52.190;4.422;2023-03-04T14:49:52;10.84;;;6.49;;
68942;SDS011;60852;52.190;4.422;2023-03-04T14:52:30;10.64;;;6.37;;
68942;SDS011;60852;52.190;4.422;2023-03-04T14:57:39;8.90;;;5.45;;
68942;SDS011;60852;52.190;4.422;2023-03-04T15:02:47;9.15;;;5.62;;
68942;SDS011;60852;52.190;4.422;2023-03-04T15:07:43;7.55;;;4.56;;
68942;SDS011;60852;52.190;4.422;2023-03-04T15:10:18;8.51;;;5.16;;
68942;SDS011;60852;52.190;4.422;2023-03-04T15:12:54;7.74;;;4.76;;
68942;SDS011;60852;52.190;4.422;2023-03-04T15:15:40;7.14;;;4.38;;
68942;SDS011;60852;52.190;4.422;2023-03-04T15:18:15;7.31;;;4.44;;
68942;SDS011;60852;52.190;4.422;2023-03-04T15:20:53;8.41;;;5.13;;
68942;SDS011;60852;52.190;4.422;2023-03-04T15:23:20;8.81;;;5.45;;
68942;SDS011;60852;52.190;4.422;2023-03-04T15:25:49;8.02;;;4.95;;
68942;SDS011;60852;52.190;4.422;2023-03-04T15:28:17;8.56;;;5.23;;
68942;SDS011;60852;52.190;4.422;2023-03-04T15:30:43;8.41;;;5.19;;
68942;SDS011;60852;52.190;4.422;2023-03-04T15:33:09;7.28;;;4.50;;
68942;SDS011;60852;52.190;4.422;2023-03-04T15:35:36;6.86;;;4.28;;
68942;SDS011;60852;52.190;4.422;2023-03-04T15:38:06;5.98;;;3.79;;
68942;SDS011;60852;52.190;4.422;2023-03-04T15:40:37;6.33;;;4.04;;
68942;SDS011;60852;52.190;4.422;2023-03-04T15:43:07;6.03;;;3.86;;
68942;SDS011;60852;52.190;4.422;2023-03-04T15:45:39;7.04;;;4.60;;
68942;SDS011;60852;52.190;4.422;2023-03-04T15:48:05;5.75;;;3.88;;
68942;SDS011;60852;52.190;4.422;2023-03-04T15:50:34;6.13;;;4.06;;
68942;SDS011;60852;52.190;4.422;2023-03-04T15:53:05;6.97;;;4.50;;
68942;SDS011;60852;52.190;4.422;2023-03-04T15:55:34;6.57;;;4.22;;
68942;SDS011;60852;52.190;4.422;2023-03-04T15:58:00;5.87;;;3.72;;
68942;SDS011;60852;52.190;4.422;2023-03-04T16:00:27;6.17;;;3.89;;
68942;SDS011;60852;52.190;4.422;2023-03-04T16:02:54;6.76;;;4.37;;
68942;SDS011;60852;52.190;4.422;2023-03-04T16:05:21;5.80;;;3.91;;
68942;SDS011;60852;52.190;4.422;2023-03-04T16:07:47;5.31;;;3.67;;
68942;SDS011;60852;52.190;4.422;2023-03-04T16:10:25;4.79;;;3.38;;
68942;SDS011;60852;52.190;4.422;2023-03-04T16:12:53;5.23;;;3.81;;
68942;SDS011;60852;52.190;4.422;2023-03-04T16:15:20;4.00;;;2.85;;
68942;SDS011;60852;52.190;4.422;2023-03-04T16:17:51;4.46;;;3.12;;
68942;SDS011;60852;52.190;4.422;2023-03-04T16:20:18;4.05;;;2.94;;
68942;SDS011;60852;52.190;4.422;2023-03-04T16:22:47;3.94;;;2.88;;
68942;SDS011;60852;52.190;4.422;2023-03-04T16:25:16;3.81;;;2.72;;
68942;SDS011;60852;52.190;4.422;2023-03-04T16:27:43;3.24;;;2.23;;
68942;SDS011;60852;52.190;4.422;2023-03-04T16:30:19;3.69;;;2.46;;
68942;SDS011;60852;52.190;4.422;2023-03-04T16:32:47;3.73;;;2.45;;
68942;SDS011;60852;52.190;4.422;2023-03-04T16:35:13;4.12;;;2.71;;
68942;SDS011;60852;52.190;4.422;2023-03-04T16:37:40;3.65;;;2.39;;
68942;SDS011;60852;52.190;4.422;2023-03-04T16:40:08;4.28;;;2.79;;
68942;SDS011;60852;52.190;4.422;2023-03-04T16:42:37;5.02;;;3.39;;
68942;SDS011;60852;52.190;4.422;2023-03-04T16:45:04;4.39;;;3.04;;